Time;durP1;ratioP1;P1;durP2;ratioP2;P2;SDS_P1;SDS_P2;PMS_P1;PMS_P2;Temp;Humidity;BMP_temperature;BMP_pressure;BME280_temperature;BME280_humidity;BME280_pressure;Samples;Min_cycle;Max_cycle;Signal;HPM_P1;HPM_P2
2021/08/24 00:00:30;;;;;;;5.17;4.67;;;15.20;99.90;;;;;;5054614;28;20265;-72
2021/08/24 00:02:58;;;;;;;10.43;6.50;;;15.10;99.90;;;;;;5054688;28;20514;-72
2021/08/24 00:05:30;;;;;;;6.37;5.77;;;15.10;99.90;;;;;;5055024;28;20257;-72
2021/08/24 00:07:56;;;;;;;5.67;5.27;;;15.00;99.90;;;;;;5054846;28;20413;-72
2021/08/24 00:10:24;;;;;;;5.80;5.30;;;14.90;99.90;;;;;;5054415;28;20448;-72
2021/08/24 00:12:50;;;;;;;6.10;5.57;;;14.90;99.90;;;;;;5046579;28;20777;-72
2021/08/24 00:15:16;;;;;;;5.53;4.90;;;14.80;99.90;;;;;;5054757;28;20437;-73
2021/08/24 00:21:04;;;;;;;7.00;4.80;;;14.80;99.90;;;;;;5056804;28;20907;-72
2021/08/24 00:23:30;;;;;;;5.30;4.90;;;14.70;99.90;;;;;;5056110;28;20441;-72
2021/08/24 00:25:58;;;;;;;9.53;5.73;;;14.70;99.90;;;;;;5056787;28;20181;-72
2021/08/24 00:28:24;;;;;;;7.70;7.00;;;14.70;99.90;;;;;;5055863;28;20516;-72
2021/08/24 00:30:49;;;;;;;7.33;6.57;;;14.70;99.90;;;;;;5055582;28;20455;-72
2021/08/24 00:33:16;;;;;;;7.53;5.63;;;14.80;99.90;;;;;;5054562;28;20405;-72
2021/08/24 00:35:43;;;;;;;6.87;6.17;;;14.90;99.90;;;;;;5053861;28;20178;-72
2021/08/24 00:38:15;;;;;;;6.07;5.53;;;14.90;99.90;;;;;;5054882;28;20415;-71
2021/08/24 00:40:41;;;;;;;5.73;5.30;;;14.90;99.90;;;;;;5055228;28;20992;-74
2021/08/24 00:43:10;;;;;;;6.30;5.70;;;14.90;99.90;;;;;;5056344;28;20413;-71
2021/08/24 00:45:40;;;;;;;6.80;5.90;;;14.90;99.90;;;;;;5057612;28;20494;-72
2021/08/24 00:48:06;;;;;;;7.43;6.73;;;14.80;99.90;;;;;;5055975;28;20401;-72
2021/08/24 00:50:37;;;;;;;6.83;6.17;;;14.80;99.90;;;;;;5038047;28;20432;-73
2021/08/24 00:53:09;;;;;;;7.20;6.50;;;14.70;99.90;;;;;;5055304;28;20416;-73
2021/08/24 00:55:38;;;;;;;6.20;5.30;;;14.70;99.90;;;;;;5055471;28;20396;-72
2021/08/24 00:58:07;;;;;;;5.57;5.07;;;14.80;99.90;;;;;;5055485;28;20484;-72
2021/08/24 01:00:34;;;;;;;8.27;4.87;;;14.80;99.90;;;;;;5054850;28;20462;-72
2021/08/24 01:03:18;;;;;;;6.27;5.63;;;14.90;99.90;;;;;;5056142;28;20897;-72
2021/08/24 01:05:47;;;;;;;5.40;4.90;;;14.90;99.90;;;;;;5056276;28;20877;-71
2021/08/24 01:08:24;;;;;;;6.00;5.40;;;14.90;99.90;;;;;;5057058;28;20435;-71
2021/08/24 01:11:16;;;;;;;5.57;4.83;;;14.90;99.90;;;;;;5054901;28;20436;-73
2021/08/24 01:13:54;;;;;;;6.50;5.17;;;14.90;99.90;;;;;;5034145;28;20417;-72
2021/08/24 01:16:40;;;;;;;5.57;4.80;;;14.70;99.90;;;;;;5052649;28;20830;-73
2021/08/24 01:19:24;;;;;;;6.37;4.70;;;14.60;99.90;;;;;;5053131;28;20776;-72
2021/08/24 01:22:08;;;;;;;6.97;5.10;;;14.50;99.90;;;;;;5053262;28;20428;-72
2021/08/24 01:24:40;;;;;;;5.67;4.63;;;14.50;99.90;;;;;;5053707;28;20404;-72
2021/08/24 01:27:33;;;;;;;5.80;5.20;;;14.50;99.90;;;;;;5033579;28;20386;-72
2021/08/24 01:30:41;;;;;;;5.47;4.97;;;14.50;99.90;;;;;;5033080;28;20937;-72
2021/08/24 01:33:31;;;;;;;7.70;5.30;;;14.40;99.90;;;;;;5038024;28;20444;-72
2021/08/24 01:36:26;;;;;;;6.43;5.17;;;14.50;99.90;;;;;;5041653;28;20405;-72
2021/08/24 01:39:10;;;;;;;5.90;4.60;;;14.60;99.90;;;;;;5053148;28;20404;-72
2021/08/24 01:42:05;;;;;;;7.43;5.07;;;14.60;99.90;;;;;;5053176;28;20940;-72
2021/08/24 01:44:36;;;;;;;6.10;4.63;;;14.50;99.90;;;;;;5053360;28;20439;-72
2021/08/24 01:47:35;;;;;;;5.50;4.77;;;14.50;99.90;;;;;;5053014;28;20413;-72
2021/08/24 01:50:31;;;;;;;8.07;6.10;;;14.40;99.90;;;;;;5052637;28;20444;-72
2021/08/24 01:53:19;;;;;;;6.73;6.00;;;14.30;99.90;;;;;;5053341;28;20451;-72
2021/08/24 01:55:56;;;;;;;6.43;5.80;;;14.30;99.90;;;;;;5053201;28;20436;-73
2021/08/24 01:58:42;;;;;;;6.30;5.80;;;14.40;99.90;;;;;;5053308;28;20462;-72
2021/08/24 02:01:09;;;;;;;6.53;5.93;;;14.30;99.90;;;;;;5055139;28;20924;-72
2021/08/24 02:03:40;;;;;;;6.90;6.20;;;14.30;99.90;;;;;;5057036;28;20194;-73
2021/08/24 02:06:21;;;;;;;10.00;6.43;;;14.20;99.90;;;;;;5056519;28;20491;-73
2021/08/24 02:08:52;;;;;;;6.33;5.73;;;14.30;99.90;;;;;;5056372;28;20435;-72
2021/08/24 02:11:18;;;;;;;6.63;5.33;;;14.30;99.90;;;;;;5056349;28;20498;-73
2021/08/24 02:13:46;;;;;;;5.10;4.70;;;14.30;99.90;;;;;;5056387;28;20411;-73
2021/08/24 02:16:16;;;;;;;7.07;5.60;;;14.20;99.90;;;;;;5056204;28;20412;-73
2021/08/24 02:18:50;;;;;;;6.13;4.90;;;14.20;99.90;;;;;;5056118;28;20404;-73
2021/08/24 02:21:30;;;;;;;11.10;6.67;;;14.20;99.90;;;;;;5055879;28;21003;-73
2021/08/24 02:24:01;;;;;;;7.13;4.83;;;14.20;99.90;;;;;;5038848;28;20851;-73
2021/08/24 02:26:30;;;;;;;5.70;5.10;;;14.10;99.90;;;;;;5056023;28;20432;-73
2021/08/24 02:28:58;;;;;;;5.17;4.67;;;14.10;99.90;;;;;;5055956;28;20886;-72
2021/08/24 02:31:49;;;;;;;4.67;4.27;;;14.10;99.90;;;;;;5055920;28;20497;-72
2021/08/24 02:34:29;;;;;;;8.20;5.63;;;14.00;99.90;;;;;;5055926;28;20450;-72
2021/08/24 02:37:03;;;;;;;5.20;4.70;;;14.00;99.90;;;;;;5056132;28;20448;-72
2021/08/24 02:39:36;;;;;;;7.20;4.90;;;14.00;99.90;;;;;;5055776;28;20439;-72
2021/08/24 02:42:24;;;;;;;6.80;6.10;;;14.00;99.90;;;;;;5058796;28;20421;-72
2021/08/24 02:45:00;;;;;;;7.97;5.63;;;14.00;99.90;;;;;;5057548;28;20459;-72
2021/08/24 02:47:27;;;;;;;6.03;5.50;;;13.90;99.90;;;;;;5056099;28;20400;-73
2021/08/24 02:49:53;;;;;;;9.60;6.10;;;13.90;99.90;;;;;;5055302;28;20798;-72
2021/08/24 02:52:20;;;;;;;5.10;4.70;;;13.80;99.90;;;;;;5055350;28;20443;-72
2021/08/24 02:54:50;;;;;;;7.67;5.73;;;13.80;99.90;;;;;;5055311;28;20420;-73
2021/08/24 02:57:15;;;;;;;5.80;5.07;;;13.90;99.90;;;;;;5056073;28;20498;-72
2021/08/24 02:59:41;;;;;;;6.60;5.83;;;14.00;99.90;;;;;;5055201;28;20608;-72
2021/08/24 03:02:09;;;;;;;5.10;4.70;;;14.00;99.90;;;;;;5055623;28;20233;-72
2021/08/24 03:04:35;;;;;;;4.90;4.50;;;13.90;99.90;;;;;;5055195;28;20253;-72
2021/08/24 03:07:28;;;;;;;5.47;4.50;;;13.90;99.90;;;;;;5051160;28;20440;-73
2021/08/24 03:10:03;;;;;;;7.30;4.90;;;13.80;99.90;;;;;;5053319;28;20761;-72
2021/08/24 03:12:41;;;;;;;5.07;4.67;;;13.80;99.90;;;;;;5053815;28;20492;-72
2021/08/24 03:15:38;;;;;;;7.40;4.90;;;13.70;99.90;;;;;;5047532;28;20427;-72
2021/08/24 03:18:10;;;;;;;5.67;5.13;;;13.60;99.90;;;;;;5029912;28;20456;-72
2021/08/24 03:20:42;;;;;;;6.17;5.57;;;13.60;99.90;;;;;;5049765;28;20457;-73
2021/08/24 03:23:11;;;;;;;10.10;6.57;;;13.60;99.90;;;;;;5039887;28;20417;-72
2021/08/24 03:25:37;;;;;;;8.00;6.93;;;13.50;99.90;;;;;;5054985;28;20421;-72
2021/08/24 03:28:03;;;;;;;7.93;6.33;;;13.50;99.90;;;;;;5055391;28;20417;-72
2021/08/24 03:30:37;;;;;;;8.03;6.70;;;13.50;99.90;;;;;;5054493;28;20534;-72
2021/08/24 03:33:02;;;;;;;9.63;6.73;;;13.50;99.90;;;;;;5037619;28;20428;-72
2021/08/24 03:35:28;;;;;;;8.07;7.27;;;13.50;99.90;;;;;;5054540;28;20424;-73
2021/08/24 03:37:53;;;;;;;7.33;6.10;;;13.50;99.90;;;;;;5054450;28;20178;-72
2021/08/24 03:40:19;;;;;;;6.70;6.00;;;13.60;99.90;;;;;;5054342;28;20571;-72
2021/08/24 03:42:45;;;;;;;6.80;6.10;;;13.50;99.90;;;;;;5038169;28;20186;-73
2021/08/24 03:45:11;;;;;;;6.07;5.47;;;13.50;99.90;;;;;;5054762;28;20173;-74
2021/08/24 03:47:36;;;;;;;9.03;6.23;;;13.50;99.90;;;;;;5052081;28;20707;-75
2021/08/24 03:50:02;;;;;;;7.17;6.47;;;13.50;99.90;;;;;;5053571;28;20440;-72
2021/08/24 03:52:28;;;;;;;7.10;6.40;;;13.50;99.90;;;;;;5053604;28;20201;-73
2021/08/24 03:54:54;;;;;;;7.73;6.70;;;13.40;99.90;;;;;;5047930;28;20480;-73
2021/08/24 03:57:19;;;;;;;13.33;10.40;;;13.40;99.90;;;;;;5050448;28;20182;-71
2021/08/24 03:59:45;;;;;;;8.40;7.20;;;13.30;99.90;;;;;;5037101;28;20202;-71
2021/08/24 04:02:10;;;;;;;9.00;7.63;;;13.30;99.90;;;;;;5052926;28;20458;-71
2021/08/24 04:04:36;;;;;;;7.20;6.53;;;13.30;99.90;;;;;;5053152;28;20602;-71
2021/08/24 04:07:02;;;;;;;6.90;6.30;;;13.20;99.90;;;;;;5054385;28;20166;-71
2021/08/24 04:09:28;;;;;;;6.90;5.43;;;13.30;99.90;;;;;;5054528;28;20212;-72
2021/08/24 04:11:56;;;;;;;6.90;5.63;;;13.40;99.90;;;;;;5054739;28;20447;-72
2021/08/24 04:14:21;;;;;;;5.43;4.73;;;13.50;99.90;;;;;;5036156;28;20174;-72
2021/08/24 04:16:49;;;;;;;5.63;5.13;;;13.60;99.90;;;;;;5055086;28;20404;-73
2021/08/24 04:19:15;;;;;;;5.50;4.77;;;13.60;99.90;;;;;;5054673;28;20261;-75
2021/08/24 04:21:41;;;;;;;7.83;5.17;;;13.70;99.90;;;;;;5055144;28;20533;-72
2021/08/24 04:24:08;;;;;;;5.80;5.30;;;13.70;99.90;;;;;;5054251;28;20577;-72
2021/08/24 04:26:40;;;;;;;7.43;6.73;;;13.80;99.90;;;;;;5055691;28;20886;-72
2021/08/24 04:29:06;;;;;;;6.83;6.00;;;13.70;99.90;;;;;;5054855;28;20407;-72
2021/08/24 04:31:35;;;;;;;6.20;5.30;;;13.70;99.90;;;;;;5054000;28;20527;-72
2021/08/24 04:34:01;;;;;;;5.23;4.73;;;13.70;99.90;;;;;;5054171;28;20256;-72
2021/08/24 04:36:26;;;;;;;5.73;5.10;;;13.70;99.90;;;;;;5053958;28;20416;-72
2021/08/24 04:38:52;;;;;;;6.10;5.10;;;13.70;99.90;;;;;;5053638;28;20189;-72
2021/08/24 04:41:17;;;;;;;6.57;5.70;;;13.70;99.90;;;;;;5054051;28;20233;-72
2021/08/24 04:43:43;;;;;;;6.40;5.80;;;13.80;99.90;;;;;;5033183;28;20268;-72
2021/08/24 04:46:09;;;;;;;8.33;5.70;;;13.70;99.90;;;;;;5054459;28;20701;-72
2021/08/24 04:48:34;;;;;;;5.70;5.20;;;13.60;99.90;;;;;;5054034;28;20174;-71
2021/08/24 04:51:00;;;;;;;6.73;6.13;;;13.60;99.90;;;;;;5053739;28;20567;-71
2021/08/24 04:53:26;;;;;;;5.80;5.20;;;13.70;99.90;;;;;;5054097;28;20193;-73
2021/08/24 04:55:52;;;;;;;5.97;5.47;;;13.70;99.90;;;;;;5054278;28;20423;-70
2021/08/24 04:58:19;;;;;;;5.70;5.10;;;13.70;99.90;;;;;;5053551;28;20905;-71
2021/08/24 05:00:44;;;;;;;7.10;5.37;;;13.80;99.90;;;;;;5053125;28;20483;-71
2021/08/24 05:03:10;;;;;;;5.93;5.33;;;13.90;99.90;;;;;;5053869;28;20616;-72
2021/08/24 05:05:35;;;;;;;5.60;5.10;;;13.80;99.90;;;;;;5053535;28;20179;-71
2021/08/24 05:08:01;;;;;;;8.53;5.43;;;13.90;99.90;;;;;;5053135;28;20224;-72
2021/08/24 05:10:26;;;;;;;6.97;5.53;;;13.90;99.90;;;;;;5052417;28;20686;-71
2021/08/24 05:12:53;;;;;;;7.37;5.93;;;13.80;99.90;;;;;;5054038;28;20186;-72
2021/08/24 05:15:18;;;;;;;8.53;7.00;;;13.80;99.90;;;;;;5053200;28;20249;-72
2021/08/24 05:17:48;;;;;;;6.13;5.53;;;13.80;99.90;;;;;;5053823;28;20451;-72
2021/08/24 05:20:14;;;;;;;8.83;6.17;;;13.90;99.90;;;;;;5053273;28;20452;-72
2021/08/24 05:22:40;;;;;;;8.50;6.65;;;13.90;99.90;;;;;;5053701;28;20789;-72
2021/08/24 05:25:07;;;;;;;7.97;6.37;;;14.00;99.90;;;;;;5053867;28;20166;-71
2021/08/24 05:27:33;;;;;;;7.40;5.53;;;14.00;99.90;;;;;;5053569;28;20185;-72
2021/08/24 05:30:02;;;;;;;7.40;6.30;;;14.00;99.90;;;;;;5053679;28;20428;-72
2021/08/24 05:32:28;;;;;;;6.70;5.97;;;14.10;99.90;;;;;;5054452;28;20405;-72
2021/08/24 05:34:54;;;;;;;7.23;5.60;;;14.10;99.90;;;;;;5055133;28;20411;-72
2021/08/24 05:37:19;;;;;;;9.77;6.93;;;14.20;99.90;;;;;;5057676;28;20205;-71
2021/08/24 05:39:45;;;;;;;6.83;6.20;;;14.20;99.90;;;;;;5063516;28;20197;-72
2021/08/24 05:42:10;;;;;;;10.00;7.00;;;14.20;99.90;;;;;;5079916;28;20225;-72
2021/08/24 05:44:36;;;;;;;9.27;6.37;;;14.20;99.90;;;;;;5080472;28;20162;-73
2021/08/24 05:47:01;;;;;;;7.93;7.13;;;14.30;99.90;;;;;;5080266;28;20270;-73
2021/08/24 05:49:32;;;;;;;11.80;8.20;;;14.30;99.90;;;;;;5080495;28;20162;-72
2021/08/24 05:51:57;;;;;;;9.10;7.57;;;14.30;99.90;;;;;;5079973;28;20210;-72
2021/08/24 05:54:23;;;;;;;12.70;8.23;;;14.40;99.90;;;;;;5079569;28;20413;-72
2021/08/24 05:56:49;;;;;;;10.80;7.90;;;14.40;99.90;;;;;;5078901;28;20565;-72
2021/08/24 05:59:15;;;;;;;9.10;7.30;;;14.40;99.90;;;;;;5061136;28;20170;-73
2021/08/24 06:01:41;;;;;;;8.77;7.97;;;14.50;99.90;;;;;;5057378;28;20448;-72
2021/08/24 06:04:07;;;;;;;9.75;8.30;;;14.50;99.90;;;;;;5056907;28;20765;-71
2021/08/24 06:06:35;;;;;;;8.97;8.07;;;14.50;99.90;;;;;;5056846;28;20523;-72
2021/08/24 06:09:03;;;;;;;12.00;10.00;;;14.60;99.90;;;;;;5056706;28;20465;-72
2021/08/24 06:11:31;;;;;;;10.97;8.80;;;14.60;99.90;;;;;;5056921;28;20948;-73
2021/08/24 06:13:59;;;;;;;9.70;8.80;;;14.60;99.90;;;;;;5056841;28;20417;-72
2021/08/24 06:16:24;;;;;;;9.23;6.83;;;14.70;99.90;;;;;;5056904;28;20412;-72
2021/08/24 06:18:50;;;;;;;12.57;8.33;;;14.70;99.90;;;;;;5038510;28;20627;-72
2021/08/24 06:21:17;;;;;;;8.57;7.10;;;14.80;99.90;;;;;;5056434;28;20628;-71
2021/08/24 06:23:43;;;;;;;9.77;7.87;;;14.80;99.90;;;;;;5056374;28;20428;-71
2021/08/24 06:26:09;;;;;;;9.10;8.10;;;14.90;99.90;;;;;;5057122;28;20416;-72
2021/08/24 06:28:34;;;;;;;8.97;7.33;;;14.90;99.90;;;;;;5056265;28;20416;-72
2021/08/24 06:31:00;;;;;;;8.87;7.73;;;14.90;99.90;;;;;;5056847;28;20738;-71
2021/08/24 06:33:30;;;;;;;8.90;7.37;;;14.90;99.90;;;;;;5056122;28;20478;-73
2021/08/24 06:35:56;;;;;;;9.30;6.90;;;15.00;99.90;;;;;;5056230;28;20240;-72
2021/08/24 06:38:22;;;;;;;8.77;7.63;;;15.00;99.90;;;;;;5057896;28;20424;-71
2021/08/24 06:40:47;;;;;;;10.00;8.13;;;15.10;99.90;;;;;;5059317;28;20467;-71
2021/08/24 06:43:17;;;;;;;11.50;7.73;;;15.20;99.90;;;;;;5059461;28;20166;-71
2021/08/24 06:45:42;;;;;;;12.83;8.00;;;15.20;99.90;;;;;;5041178;28;20174;-71
2021/08/24 06:48:08;;;;;;;9.13;7.77;;;15.30;99.90;;;;;;5042172;28;20773;-71
2021/08/24 06:50:35;;;;;;;8.10;7.17;;;15.40;99.90;;;;;;5057276;28;20208;-73
2021/08/24 06:53:01;;;;;;;9.27;6.80;;;15.40;99.90;;;;;;5055690;28;20182;-71
2021/08/24 06:55:30;;;;;;;10.17;7.97;;;15.50;99.90;;;;;;5056249;28;20571;-72
2021/08/24 06:57:57;;;;;;;8.50;7.60;;;15.60;99.90;;;;;;5056113;28;20412;-72
2021/08/24 07:00:24;;;;;;;7.13;6.53;;;15.60;99.90;;;;;;5055374;28;20507;-72
2021/08/24 07:02:50;;;;;;;10.37;8.33;;;15.70;99.90;;;;;;5037718;28;20413;-73
2021/08/24 07:05:18;;;;;;;7.23;6.60;;;15.80;99.90;;;;;;5055556;28;20490;-73
2021/08/24 07:07:44;;;;;;;7.73;5.93;;;15.80;99.90;;;;;;5056035;28;20174;-73
2021/08/24 07:10:12;;;;;;;6.67;6.00;;;15.90;99.90;;;;;;5056137;28;20425;-72
2021/08/24 07:12:39;;;;;;;6.30;5.80;;;16.00;99.90;;;;;;5055229;28;20412;-71
2021/08/24 07:15:06;;;;;;;7.23;5.77;;;16.00;99.90;;;;;;5037525;28;20420;-72
2021/08/24 07:17:32;;;;;;;5.90;5.30;;;16.10;99.90;;;;;;5055319;28;20421;-72
2021/08/24 07:19:57;;;;;;;5.93;5.27;;;16.10;99.90;;;;;;5037690;28;20498;-71
2021/08/24 07:22:23;;;;;;;5.63;5.13;;;16.20;99.90;;;;;;5055697;28;20173;-70
2021/08/24 07:24:49;;;;;;;7.90;4.93;;;16.30;99.90;;;;;;5056357;28;20178;-71
2021/08/24 07:27:15;;;;;;;5.30;4.80;;;16.30;99.90;;;;;;5055900;28;20419;-71
2021/08/24 07:29:41;;;;;;;6.93;4.13;;;16.40;99.90;;;;;;5058055;28;20178;-72
2021/08/24 07:32:08;;;;;;;6.83;3.93;;;16.50;99.90;;;;;;5063793;28;20539;-71
2021/08/24 07:34:35;;;;;;;4.60;4.20;;;16.50;99.90;;;;;;5073873;28;20162;-71
2021/08/24 07:37:00;;;;;;;4.13;3.77;;;16.50;99.90;;;;;;5073394;28;20424;-73
2021/08/24 07:39:26;;;;;;;3.70;3.40;;;16.60;99.90;;;;;;5065212;28;20824;-71
2021/08/24 07:41:52;;;;;;;6.03;4.27;;;16.70;99.90;;;;;;5056308;28;20202;-72
2021/08/24 07:44:23;;;;;;;6.07;4.10;;;16.70;99.90;;;;;;5057368;28;20169;-72
2021/08/24 07:46:51;;;;;;;3.97;2.93;;;16.80;99.90;;;;;;5056689;28;20409;-72
2021/08/24 07:49:17;;;;;;;3.77;3.47;;;16.80;99.90;;;;;;5055477;28;20854;-71
2021/08/24 07:51:44;;;;;;;3.93;3.57;;;16.90;99.90;;;;;;5055836;28;20554;-72
2021/08/24 07:54:10;;;;;;;4.10;3.80;;;16.90;99.90;;;;;;5055273;28;20427;-72
2021/08/24 07:56:35;;;;;;;5.17;4.30;;;17.00;99.90;;;;;;5054397;28;20754;-71
2021/08/24 07:59:01;;;;;;;4.67;3.67;;;17.10;99.90;;;;;;5053730;28;20193;-72
2021/08/24 08:01:26;;;;;;;3.50;3.20;;;17.10;99.90;;;;;;5054594;28;20221;-72
2021/08/24 08:03:52;;;;;;;3.53;3.23;;;17.30;99.90;;;;;;5054776;28;20535;-72
2021/08/24 08:06:18;;;;;;;5.67;3.77;;;17.30;99.90;;;;;;5054920;28;20194;-71
2021/08/24 08:08:43;;;;;;;3.60;3.30;;;17.40;99.90;;;;;;5052906;28;20499;-72
2021/08/24 08:11:09;;;;;;;3.20;2.87;;;17.50;99.90;;;;;;5053919;28;20233;-72
2021/08/24 08:13:34;;;;;;;3.13;2.50;;;17.60;99.90;;;;;;5054370;28;20170;-72
2021/08/24 08:16:00;;;;;;;4.57;2.53;;;17.60;99.90;;;;;;5054565;28;20186;-72
2021/08/24 08:18:26;;;;;;;2.50;2.30;;;17.70;99.90;;;;;;5053920;28;20213;-72
2021/08/24 08:20:52;;;;;;;4.13;2.77;;;17.70;99.90;;;;;;5035783;28;20206;-72
2021/08/24 08:23:19;;;;;;;4.80;3.23;;;17.60;99.90;;;;;;5053776;28;20236;-73
2021/08/24 08:25:45;;;;;;;5.60;2.83;;;17.70;99.90;;;;;;5054222;28;20174;-73
2021/08/24 08:28:12;;;;;;;6.10;3.53;;;17.80;99.90;;;;;;5036909;28;20424;-72
2021/08/24 08:30:41;;;;;;;3.73;3.13;;;17.90;99.90;;;;;;5053894;28;20497;-71
2021/08/24 08:33:07;;;;;;;2.90;2.70;;;17.90;99.90;;;;;;5053481;28;20468;-74
2021/08/24 08:35:32;;;;;;;5.87;2.53;;;17.80;99.90;;;;;;5053998;28;20452;-72
2021/08/24 08:37:59;;;;;;;4.03;2.80;;;17.80;99.90;;;;;;5054792;28;20586;-74
2021/08/24 08:40:45;;;;;;;4.00;2.67;;;17.60;99.90;;;;;;5053505;28;20300;-72
2021/08/24 08:43:38;;;;;;;4.10;2.17;;;17.70;99.90;;;;;;5035811;28;20424;-73
2021/08/24 08:46:20;;;;;;;2.60;2.40;;;17.60;99.90;;;;;;5049279;28;20444;-72
2021/08/24 08:48:51;;;;;;;3.37;3.07;;;17.60;99.90;;;;;;5054274;28;20412;-72
2021/08/24 08:51:38;;;;;;;5.43;2.90;;;17.60;99.90;;;;;;5053381;28;20451;-72
2021/08/24 08:54:29;;;;;;;5.17;2.93;;;17.80;99.90;;;;;;5053803;28;20444;-72
2021/08/24 08:57:13;;;;;;;2.67;2.47;;;18.00;99.60;;;;;;5053668;28;20823;-72
2021/08/24 08:59:48;;;;;;;2.20;2.00;;;18.00;99.80;;;;;;5035445;28;20459;-72
2021/08/24 09:02:48;;;;;;;4.33;2.50;;;18.20;99.70;;;;;;5035613;28;20420;-72
2021/08/24 09:05:15;;;;;;;4.10;3.07;;;18.30;98.30;;;;;;5013480;28;20892;-72
2021/08/24 09:07:49;;;;;;;3.73;2.80;;;18.50;97.40;;;;;;5053519;28;20409;-73
2021/08/24 09:10:23;;;;;;;3.83;2.27;;;18.50;97.20;;;;;;5056970;28;20774;-72
2021/08/24 09:13:06;;;;;;;2.97;2.40;;;18.70;96.90;;;;;;5057978;28;20412;-72
2021/08/24 09:15:39;;;;;;;4.33;2.40;;;18.80;96.60;;;;;;5057098;28;20416;-73
2021/08/24 09:18:07;;;;;;;2.50;2.10;;;19.00;96.10;;;;;;5057515;28;20405;-72
2021/08/24 09:20:40;;;;;;;3.85;2.80;;;19.10;95.60;;;;;;5039080;28;20446;-73
2021/08/24 09:23:15;;;;;;;3.10;2.67;;;19.10;95.30;;;;;;5057534;28;20205;-73
2021/08/24 09:26:13;;;;;;;3.07;2.70;;;19.10;94.50;;;;;;5039250;28;20410;-73
2021/08/24 09:28:40;;;;;;;2.50;2.30;;;19.00;94.70;;;;;;5056992;28;20411;-71
2021/08/24 09:31:11;;;;;;;4.07;3.03;;;19.10;95.00;;;;;;5057152;28;20956;-73
2021/08/24 09:33:36;;;;;;;2.90;2.37;;;19.20;94.90;;;;;;5057375;28;20417;-72
2021/08/24 09:36:02;;;;;;;4.93;3.07;;;19.30;94.80;;;;;;5057048;28;20423;-73
2021/08/24 09:38:31;;;;;;;3.13;2.83;;;19.40;94.60;;;;;;5056798;28;20193;-71
2021/08/24 09:40:59;;;;;;;4.17;2.63;;;19.50;94.60;;;;;;5057078;28;20284;-73
2021/08/24 09:43:31;;;;;;;4.33;3.00;;;19.60;94.00;;;;;;5057294;28;20425;-71
2021/08/24 09:46:15;;;;;;;4.80;2.73;;;19.50;94.30;;;;;;5056492;28;20443;-73
2021/08/24 09:48:51;;;;;;;2.43;2.23;;;19.70;94.50;;;;;;5056828;28;20466;-72
2021/08/24 09:51:29;;;;;;;3.60;2.80;;;19.50;94.60;;;;;;5056273;28;20971;-72
2021/08/24 09:53:59;;;;;;;4.17;2.40;;;19.40;95.30;;;;;;5057449;28;20414;-72
2021/08/24 09:56:27;;;;;;;2.90;2.50;;;19.60;95.20;;;;;;5056859;28;20797;-72
2021/08/24 09:58:54;;;;;;;3.30;2.73;;;19.70;94.70;;;;;;5038691;28;20412;-71
2021/08/24 10:01:20;;;;;;;2.97;2.67;;;19.70;95.10;;;;;;5038663;28;20466;-72
2021/08/24 10:04:02;;;;;;;3.20;2.37;;;19.90;95.30;;;;;;5057238;28;20405;-71
2021/08/24 10:06:31;;;;;;;5.33;2.73;;;19.90;94.50;;;;;;5038675;28;21003;-73
2021/08/24 10:09:24;;;;;;;4.33;2.20;;;20.10;93.30;;;;;;5056207;28;20428;-72
2021/08/24 10:11:50;;;;;;;3.70;3.00;;;20.10;91.90;;;;;;5056321;28;20436;-72
2021/08/24 10:14:42;;;;;;;3.57;2.57;;;20.20;92.00;;;;;;5057500;28;20741;-72
2021/08/24 10:17:31;;;;;;;3.70;2.73;;;20.20;91.20;;;;;;5053784;28;20660;-71
2021/08/24 10:19:57;;;;;;;3.90;2.67;;;20.40;90.80;;;;;;5055670;28;20460;-71
2021/08/24 10:22:33;;;;;;;2.70;2.50;;;20.50;90.70;;;;;;5039691;28;20415;-71
2021/08/24 10:25:19;;;;;;;3.83;2.20;;;20.50;90.40;;;;;;5056653;28;20425;-71
2021/08/24 10:27:58;;;;;;;2.83;2.27;;;20.60;90.60;;;;;;5056610;28;20441;-73
2021/08/24 10:30:52;;;;;;;2.60;2.40;;;20.50;90.30;;;;;;5055378;28;20440;-71
2021/08/24 10:33:30;;;;;;;3.70;2.50;;;20.20;88.10;;;;;;5057152;28;20437;-72
2021/08/24 10:36:12;;;;;;;2.90;2.50;;;19.80;89.10;;;;;;5056791;28;20872;-72
2021/08/24 10:38:59;;;;;;;3.60;2.23;;;19.80;90.20;;;;;;5055923;28;20437;-72
2021/08/24 10:41:30;;;;;;;2.43;2.23;;;19.90;90.30;;;;;;5055836;28;20456;-72
2021/08/24 10:44:00;;;;;;;2.90;2.70;;;19.90;90.10;;;;;;5054650;28;20423;-72
2021/08/24 10:46:26;;;;;;;4.30;2.90;;;20.00;90.40;;;;;;5056611;28;20174;-72
2021/08/24 10:48:52;;;;;;;2.93;2.57;;;19.80;90.30;;;;;;5056067;28;20421;-72
2021/08/24 10:51:35;;;;;;;3.27;2.80;;;19.90;90.00;;;;;;5056294;28;20460;-72
2021/08/24 10:54:13;;;;;;;3.30;2.87;;;19.90;88.00;;;;;;5067888;28;20242;-72
2021/08/24 10:57:00;;;;;;;3.20;2.90;;;20.00;88.30;;;;;;5056231;28;20476;-73
2021/08/24 10:59:42;;;;;;;5.73;3.20;;;20.10;89.10;;;;;;5068254;28;20420;-72
2021/08/24 11:02:34;;;;;;;4.37;2.80;;;20.20;90.10;;;;;;5057916;28;20382;-72
2021/08/24 11:05:08;;;;;;;6.67;3.53;;;20.40;90.40;;;;;;5056128;28;20419;-72
2021/08/24 11:07:56;;;;;;;4.57;3.10;;;20.40;91.00;;;;;;5056420;28;20483;-72
2021/08/24 11:10:40;;;;;;;3.73;2.57;;;20.40;91.10;;;;;;5040671;28;20802;-71
2021/08/24 11:13:45;;;;;;;6.13;3.77;;;20.40;90.80;;;;;;5055801;28;20401;-71
2021/08/24 11:16:29;;;;;;;3.70;3.13;;;20.30;90.60;;;;;;5052458;28;20520;-73
2021/08/24 11:19:26;;;;;;;3.50;2.90;;;20.40;90.30;;;;;;5055419;28;20425;-71
2021/08/24 11:22:20;;;;;;;4.23;2.93;;;20.30;90.20;;;;;;5054562;28;20404;-72
2021/08/24 11:25:06;;;;;;;3.40;2.57;;;20.30;91.10;;;;;;5055100;28;20424;-72
2021/08/24 11:27:53;;;;;;;3.90;3.50;;;20.40;90.00;;;;;;5055215;28;20714;-72
2021/08/24 11:30:19;;;;;;;4.40;3.10;;;20.50;90.00;;;;;;5055724;28;20420;-72
2021/08/24 11:32:48;;;;;;;5.00;3.33;;;20.50;90.20;;;;;;5035660;28;20412;-72
2021/08/24 11:35:24;;;;;;;2.60;2.40;;;20.50;90.30;;;;;;5054735;28;20503;-72
2021/08/24 11:38:01;;;;;;;3.00;2.60;;;20.40;90.50;;;;;;5034999;28;20406;-72
2021/08/24 11:40:41;;;;;;;5.70;2.80;;;20.40;91.10;;;;;;5035658;28;20541;-72
2021/08/24 11:43:17;;;;;;;4.77;3.00;;;20.40;91.10;;;;;;5036673;28;20790;-72
2021/08/24 11:45:50;;;;;;;3.80;2.77;;;20.40;91.20;;;;;;5055151;28;20396;-72
2021/08/24 11:48:24;;;;;;;3.97;3.00;;;20.30;91.30;;;;;;5052372;28;20413;-72
2021/08/24 11:51:02;;;;;;;3.70;3.20;;;20.40;91.60;;;;;;5054846;28;20484;-72
2021/08/24 11:53:37;;;;;;;2.87;2.40;;;20.40;91.10;;;;;;5055829;28;20435;-71
2021/08/24 11:56:29;;;;;;;2.63;2.40;;;20.50;90.80;;;;;;5056641;28;20420;-71
2021/08/24 12:03:22;;;;;;;;;;;;;;;;;;;;;
2021/08/24 12:12:16;;;;;;;4.10;2.90;;;20.40;88.10;;;;;;5848607;22;20495;-73
2021/08/24 12:14:56;;;;;;;2.77;2.47;;;20.40;86.80;;;;;;5074369;28;20395;-71
2021/08/24 12:17:35;;;;;;;2.50;2.30;;;20.40;87.50;;;;;;5074178;28;20423;-73
2021/08/24 12:20:06;;;;;;;4.27;2.80;;;20.30;86.80;;;;;;5052182;28;20475;-72
2021/08/24 12:22:54;;;;;;;4.00;2.57;;;20.20;87.40;;;;;;5054207;28;20753;-72
2021/08/24 12:25:35;;;;;;;3.77;2.40;;;20.20;88.40;;;;;;5053637;28;20405;-72
2021/08/24 12:28:15;;;;;;;4.20;2.50;;;20.10;88.80;;;;;;5034186;28;20483;-72
2021/08/24 12:30:58;;;;;;;3.10;2.80;;;20.20;90.20;;;;;;5034296;28;20445;-72
2021/08/24 12:33:37;;;;;;;5.00;3.07;;;20.30;88.80;;;;;;5034425;28;20409;-72
2021/08/24 12:36:23;;;;;;;3.63;2.70;;;20.30;89.30;;;;;;5039813;28;20440;-72
2021/08/24 12:39:01;;;;;;;5.33;2.60;;;20.30;90.00;;;;;;5053596;28;20489;-72
2021/08/24 12:41:35;;;;;;;3.67;2.60;;;20.30;90.60;;;;;;5042928;28;20464;-72
2021/08/24 12:44:13;;;;;;;3.70;2.70;;;20.30;90.80;;;;;;5053611;28;20427;-72
2021/08/24 12:46:41;;;;;;;4.93;3.13;;;20.30;90.20;;;;;;5036190;28;20417;-72
2021/08/24 12:49:16;;;;;;;6.03;2.77;;;20.40;90.60;;;;;;5053133;28;20445;-72
2021/08/24 12:51:49;;;;;;;3.27;2.80;;;20.40;90.80;;;;;;5035413;28;20517;-72
2021/08/24 12:54:18;;;;;;;3.93;3.00;;;20.50;90.60;;;;;;5053041;28;20511;-72
2021/08/24 12:57:11;;;;;;;3.20;2.90;;;20.60;90.60;;;;;;5053825;28;20400;-72
2021/08/24 12:59:41;;;;;;;4.97;3.40;;;20.60;90.30;;;;;;5035196;28;20547;-72
2021/08/24 13:02:11;;;;;;;3.47;2.60;;;20.60;89.50;;;;;;5053662;28;20759;-72
2021/08/24 13:04:38;;;;;;;4.83;3.33;;;20.70;87.80;;;;;;5053447;28;20473;-72
2021/08/24 13:07:31;;;;;;;5.03;3.00;;;20.70;87.50;;;;;;5053121;28;20460;-72
2021/08/24 13:10:14;;;;;;;4.70;3.45;;;20.70;87.70;;;;;;5052399;28;20412;-72
2021/08/24 13:12:41;;;;;;;7.07;3.17;;;20.80;88.70;;;;;;5054232;28;20205;-71
2021/08/24 13:15:25;;;;;;;3.70;2.90;;;21.00;88.50;;;;;;5035404;28;20462;-71
2021/08/24 13:17:54;;;;;;;3.80;2.63;;;21.10;87.10;;;;;;5053483;28;20464;-72
2021/08/24 13:20:38;;;;;;;4.57;3.33;;;21.10;87.80;;;;;;5052904;28;20594;-72
2021/08/24 13:23:09;;;;;;;3.83;2.70;;;21.00;89.10;;;;;;5053639;28;20895;-72
2021/08/24 13:25:39;;;;;;;3.30;2.90;;;21.10;88.40;;;;;;5053073;28;20420;-72
2021/08/24 13:28:11;;;;;;;3.40;3.03;;;21.10;85.50;;;;;;5053815;28;20385;-72